createdAt,value
2019-05-11T00:00:55.355Z,55.83
2019-05-11T00:03:44.800Z,55.89
2019-05-11T00:06:33.398Z,55.96
2019-05-11T00:09:22.631Z,55.92
2019-05-11T00:12:11.461Z,55.92
2019-05-11T00:15:00.880Z,55.91
2019-05-11T00:17:51.016Z,55.93
2019-05-11T00:20:40.689Z,56.00
2019-05-11T00:23:29.949Z,56.08
2019-05-11T00:26:19.383Z,56.14
2019-05-11T00:29:09.035Z,56.08
2019-05-11T00:31:58.434Z,56.20
2019-05-11T00:34:47.842Z,56.19
2019-05-11T00:37:36.966Z,56.24
2019-05-11T00:40:26.499Z,56.24
2019-05-11T00:43:16.074Z,56.30
2019-05-11T00:46:05.223Z,56.35
2019-05-11T00:48:54.609Z,56.38
2019-05-11T00:51:43.079Z,56.42
2019-05-11T00:54:32.513Z,56.51
2019-05-11T00:57:21.600Z,56.50
2019-05-11T01:00:10.571Z,56.50
2019-05-11T01:02:59.805Z,56.56
2019-05-11T01:05:48.962Z,56.55
2019-05-11T01:08:38.929Z,56.57
2019-05-11T01:11:27.706Z,56.62
2019-05-11T01:14:16.604Z,56.58
2019-05-11T01:17:06.055Z,56.53
2019-05-11T01:19:55.635Z,56.58
2019-05-11T01:22:44.831Z,56.60
2019-05-11T01:25:33.732Z,56.66
2019-05-11T01:28:23.259Z,56.70
2019-05-11T01:31:13.832Z,56.78
2019-05-11T01:34:03.190Z,56.81
2019-05-11T01:36:52.391Z,56.81
2019-05-11T01:39:41.908Z,56.81
2019-05-11T01:42:30.425Z,56.86
2019-05-11T01:45:20.576Z,56.87
2019-05-11T01:48:10.446Z,56.93
2019-05-11T01:50:59.858Z,56.88
2019-05-11T01:53:48.811Z,56.95
2019-05-11T01:56:38.149Z,56.98
2019-05-11T01:59:27.448Z,57.01
2019-05-11T02:02:16.305Z,57.08
2019-05-11T02:05:23.031Z,57.07
2019-05-11T02:08:11.727Z,57.02
2019-05-11T02:11:14.819Z,57.06
2019-05-11T02:13:50.901Z,57.09
2019-05-11T02:16:39.761Z,57.17
2019-05-11T02:19:29.367Z,57.25
2019-05-11T02:22:18.732Z,57.18
2019-05-11T02:25:08.440Z,57.34
2019-05-11T02:27:57.801Z,57.39
2019-05-11T02:30:47.652Z,57.23
2019-05-11T02:33:36.836Z,57.32
2019-05-11T02:36:25.637Z,57.35
2019-05-11T02:39:14.926Z,57.33
2019-05-11T02:42:03.751Z,57.29
2019-05-11T02:44:53.135Z,57.33
2019-05-11T02:47:42.805Z,57.30
2019-05-11T02:50:32.135Z,57.45
2019-05-11T02:53:21.397Z,57.40
2019-05-11T02:56:10.717Z,57.51
2019-05-11T02:59:00.264Z,57.49
2019-05-11T03:01:49.464Z,57.52
2019-05-11T03:04:38.955Z,57.58
2019-05-11T03:07:27.818Z,57.62
2019-05-11T03:10:17.039Z,57.56
2019-05-11T03:13:06.398Z,57.64
2019-05-11T03:15:56.133Z,57.65
2019-05-11T03:18:45.831Z,57.67
2019-05-11T03:21:35.209Z,57.64
2019-05-11T03:24:24.200Z,57.56
2019-05-11T03:27:13.336Z,57.68
2019-05-11T03:30:02.619Z,57.69
2019-05-11T03:32:51.894Z,57.69
2019-05-11T03:35:42.482Z,57.79
2019-05-11T03:38:32.103Z,57.81
2019-05-11T03:41:21.563Z,57.91
2019-05-11T03:44:10.861Z,57.82
2019-05-11T03:46:59.935Z,57.91
2019-05-11T03:49:49.387Z,57.93
2019-05-11T03:52:39.002Z,57.95
2019-05-11T03:55:28.256Z,57.94
2019-05-11T03:58:17.344Z,58.03
2019-05-11T04:01:06.232Z,57.97
2019-05-11T04:03:55.901Z,58.05
2019-05-11T04:06:45.658Z,58.05
2019-05-11T04:09:34.624Z,58.05
2019-05-11T04:12:34.309Z,58.08
2019-05-11T04:15:15.108Z,58.10
2019-05-11T04:18:05.320Z,58.12
2019-05-11T04:20:54.792Z,58.11
2019-05-11T04:23:44.002Z,58.04
2019-05-11T04:26:33.016Z,58.17
2019-05-11T04:29:21.609Z,58.19
2019-05-11T04:32:10.119Z,58.09
2019-05-11T04:35:00.622Z,58.13
2019-05-11T04:37:50.037Z,58.08
2019-05-11T04:40:39.388Z,58.17
2019-05-11T04:43:29.116Z,58.20
2019-05-11T04:46:17.927Z,58.23
2019-05-11T04:49:07.245Z,58.31
2019-05-11T04:51:56.262Z,58.29
2019-05-11T04:54:45.645Z,58.35
2019-05-11T04:57:35.064Z,58.42
2019-05-11T05:00:25.729Z,58.38
2019-05-11T05:03:14.875Z,58.29
2019-05-11T05:06:22.286Z,58.32
2019-05-11T05:08:58.078Z,58.44
2019-05-11T05:11:46.109Z,58.56
2019-05-11T05:14:34.619Z,58.48
2019-05-11T05:17:23.578Z,58.41
2019-05-11T05:20:12.184Z,58.43
2019-05-11T05:23:00.950Z,58.69
2019-05-11T05:25:52.676Z,58.77
2019-05-11T05:28:45.575Z,58.85
2019-05-11T05:31:34.407Z,58.80
2019-05-11T05:34:24.779Z,58.89
2019-05-11T05:37:14.280Z,58.91
2019-05-11T05:40:03.695Z,58.64
2019-05-11T05:42:53.122Z,58.87
2019-05-11T05:45:44.287Z,58.70
2019-05-11T05:48:33.781Z,58.69
2019-05-11T05:51:23.508Z,58.54
2019-05-11T05:54:13.223Z,58.67
2019-05-11T05:57:02.522Z,58.52
2019-05-11T05:59:52.769Z,58.38
2019-05-11T06:02:42.749Z,58.59
2019-05-11T06:05:32.342Z,58.45
2019-05-11T06:08:23.241Z,58.46
2019-05-11T06:11:12.192Z,58.55
2019-05-11T06:14:01.567Z,58.35
2019-05-11T06:16:50.977Z,58.22
2019-05-11T06:19:40.472Z,58.11
2019-05-11T06:22:29.736Z,58.07
2019-05-11T06:25:19.009Z,57.96
2019-05-11T06:28:08.460Z,58.06
2019-05-11T06:30:58.403Z,57.82
2019-05-11T06:33:48.917Z,57.66
2019-05-11T06:36:37.743Z,57.67
2019-05-11T06:39:27.260Z,57.43
2019-05-11T06:42:18.196Z,57.55
2019-05-11T06:45:09.791Z,57.28
2019-05-11T06:47:59.107Z,57.16
2019-05-11T06:50:47.997Z,57.01
2019-05-11T06:53:37.203Z,56.80
2019-05-11T06:56:26.370Z,56.64
2019-05-11T06:59:15.016Z,56.48
2019-05-11T07:02:05.010Z,56.16
2019-05-11T07:04:54.233Z,55.99
2019-05-11T07:07:47.497Z,55.94
2019-05-11T07:10:34.210Z,55.68
2019-05-11T07:13:24.302Z,55.58
2019-05-11T07:16:13.610Z,55.40
2019-05-11T07:19:02.254Z,55.19
2019-05-11T07:21:51.394Z,54.90
2019-05-11T07:24:40.796Z,54.74
2019-05-11T07:27:29.879Z,54.99
2019-05-11T07:30:19.951Z,54.13
2019-05-11T07:33:09.382Z,54.07
2019-05-11T07:35:58.464Z,53.78
2019-05-11T07:38:48.720Z,53.42
2019-05-11T07:41:38.872Z,53.60
2019-05-11T07:44:37.876Z,53.01
2019-05-11T07:47:18.882Z,53.59
2019-05-11T07:50:08.687Z,53.02
2019-05-11T07:52:58.862Z,52.67
2019-05-11T07:55:48.692Z,52.90
2019-05-11T07:58:38.756Z,52.22
2019-05-11T08:01:28.435Z,52.45
2019-05-11T08:04:18.447Z,51.90
2019-05-11T08:07:07.811Z,51.52
2019-05-11T08:09:58.545Z,51.66
2019-05-11T08:12:48.065Z,51.97
2019-05-11T08:15:38.232Z,51.84
2019-05-11T08:18:28.217Z,51.75
2019-05-11T08:21:18.123Z,50.62
2019-05-11T08:24:09.141Z,50.76
2019-05-11T08:26:58.480Z,51.50
2019-05-11T08:29:48.759Z,50.34
2019-05-11T08:32:38.747Z,50.52
2019-05-11T08:35:31.030Z,50.14
2019-05-11T08:38:19.089Z,49.96
2019-05-11T08:41:08.893Z,50.24
2019-05-11T08:43:58.863Z,49.40
2019-05-11T08:46:49.054Z,48.76
2019-05-11T08:49:38.264Z,48.59
2019-05-11T08:52:28.040Z,47.60
2019-05-11T08:55:19.003Z,47.70
2019-05-11T08:58:08.921Z,48.28
2019-05-11T09:00:58.447Z,47.37
2019-05-11T09:03:48.322Z,48.15
2019-05-11T09:06:37.835Z,46.86
2019-05-11T09:09:28.728Z,46.76
2019-05-11T09:12:18.425Z,46.10
2019-05-11T09:15:08.973Z,46.50
2019-05-11T09:17:58.893Z,46.35
2019-05-11T09:20:48.733Z,45.87
2019-05-11T09:23:40.840Z,45.48
2019-05-11T09:26:29.635Z,45.66
2019-05-11T09:29:18.734Z,46.28
2019-05-11T09:32:08.967Z,45.60
2019-05-11T09:34:58.644Z,45.16
2019-05-11T09:37:48.680Z,45.48
2019-05-11T09:40:38.574Z,46.58
2019-05-11T09:43:28.463Z,44.77
2019-05-11T09:46:18.920Z,44.48
2019-05-11T09:49:08.204Z,44.29
2019-05-11T09:51:58.890Z,44.07
2019-05-11T09:54:48.835Z,43.33
2019-05-11T09:57:38.427Z,44.08
2019-05-11T10:00:28.274Z,43.11
2019-05-11T10:03:18.776Z,42.84
2019-05-11T10:06:08.643Z,43.50
2019-05-11T10:08:57.955Z,42.90
2019-05-11T10:11:47.972Z,42.51
2019-05-11T10:14:38.365Z,42.89
2019-05-11T10:17:28.802Z,41.31
2019-05-11T10:20:18.409Z,40.74
2019-05-11T10:23:08.429Z,40.20
2019-05-11T10:25:58.612Z,41.34
2019-05-11T10:28:48.780Z,40.95
2019-05-11T10:31:38.749Z,40.61
2019-05-11T10:34:28.749Z,40.85
2019-05-11T10:37:18.386Z,39.92
2019-05-11T10:40:09.568Z,39.68
2019-05-11T10:42:59.320Z,39.73
2019-05-11T10:45:48.552Z,39.51
2019-05-11T10:48:38.887Z,39.14
2019-05-11T10:51:28.947Z,38.02
2019-05-11T10:54:18.709Z,37.60
2019-05-11T10:57:08.472Z,37.95
2019-05-11T10:59:58.102Z,37.65
2019-05-11T11:02:47.933Z,37.63
2019-05-11T11:05:38.466Z,37.06
2019-05-11T11:08:28.179Z,37.39
2019-05-11T11:11:18.482Z,37.21
2019-05-11T11:14:08.712Z,36.84
2019-05-11T11:16:58.481Z,36.48
2019-05-11T11:19:48.611Z,36.41
2019-05-11T11:22:43.431Z,36.35
2019-05-11T11:25:29.155Z,36.28
2019-05-11T11:28:17.889Z,35.79
2019-05-11T11:31:07.782Z,35.81
2019-05-11T11:33:58.481Z,35.80
2019-05-11T11:36:48.546Z,36.03
2019-05-11T11:39:38.834Z,36.08
2019-05-11T11:42:28.492Z,35.62
2019-05-11T11:45:18.393Z,35.51
2019-05-11T11:48:08.795Z,35.94
2019-05-11T11:50:58.602Z,34.38
2019-05-11T11:53:48.225Z,34.86
2019-05-11T11:56:38.163Z,34.97
2019-05-11T11:59:28.690Z,34.61
2019-05-11T12:02:19.058Z,34.57
2019-05-11T12:05:08.954Z,34.76
2019-05-11T12:07:58.660Z,34.60
2019-05-11T12:10:48.523Z,34.50
2019-05-11T12:13:38.360Z,34.71
2019-05-11T12:16:28.291Z,33.94
2019-05-11T12:19:18.741Z,32.60
2019-05-11T12:22:08.630Z,32.99
2019-05-11T12:24:59.063Z,32.89
2019-05-11T12:27:49.055Z,33.30
2019-05-11T12:30:38.784Z,32.25
2019-05-11T12:33:28.026Z,32.31
2019-05-11T12:36:18.743Z,32.46
2019-05-11T12:39:08.894Z,32.73
2019-05-11T12:41:58.386Z,32.89
2019-05-11T12:44:48.264Z,32.23
2019-05-11T12:47:38.633Z,31.72
2019-05-11T12:50:28.647Z,32.21
2019-05-11T12:53:18.691Z,30.58
2019-05-11T12:56:08.550Z,31.19
2019-05-11T12:58:58.344Z,30.94
2019-05-11T13:01:48.621Z,30.87
2019-05-11T13:04:38.583Z,30.73
2019-05-11T13:07:28.406Z,31.07
2019-05-11T13:10:18.667Z,30.67
2019-05-11T13:13:08.860Z,30.78
2019-05-11T13:15:58.763Z,31.38
2019-05-11T13:18:48.774Z,32.32
2019-05-11T13:21:38.578Z,31.36
2019-05-11T13:24:28.513Z,31.57
2019-05-11T13:27:18.093Z,31.41
2019-05-11T13:30:08.101Z,31.97
2019-05-11T13:32:58.261Z,31.45
2019-05-11T13:35:48.231Z,31.92
2019-05-11T13:38:38.813Z,31.29
2019-05-11T13:41:28.167Z,31.18
2019-05-11T13:44:18.686Z,31.10
2019-05-11T13:47:08.631Z,31.36
2019-05-11T13:49:58.678Z,31.36
2019-05-11T13:52:47.960Z,31.34
2019-05-11T13:55:38.829Z,31.69
2019-05-11T13:58:27.778Z,31.37
2019-05-11T14:01:18.394Z,31.48
2019-05-11T14:04:08.529Z,31.24
2019-05-11T14:06:58.650Z,30.67
2019-05-11T14:09:48.595Z,30.70
2019-05-11T14:12:38.690Z,30.55
2019-05-11T14:15:28.674Z,30.23
2019-05-11T14:18:18.254Z,30.31
2019-05-11T14:21:08.132Z,30.34
2019-05-11T14:23:58.818Z,30.19
2019-05-11T14:26:48.958Z,30.54
2019-05-11T14:29:38.656Z,30.59
2019-05-11T14:32:28.604Z,30.38
2019-05-11T14:35:18.780Z,30.49
2019-05-11T14:38:08.656Z,30.54
2019-05-11T14:40:58.630Z,29.89
2019-05-11T14:43:48.988Z,29.69
2019-05-11T14:46:38.647Z,29.61
2019-05-11T14:49:28.046Z,29.86
2019-05-11T14:52:18.808Z,30.04
2019-05-11T14:55:08.184Z,30.06
2019-05-11T14:57:57.854Z,30.19
2019-05-11T15:00:48.719Z,30.08
2019-05-11T15:03:38.081Z,29.66
2019-05-11T15:06:27.915Z,29.05
2019-05-11T15:09:18.372Z,29.43
2019-05-11T15:12:08.646Z,29.77
2019-05-11T15:14:59.163Z,30.06
2019-05-11T15:17:49.538Z,29.89
2019-05-11T15:20:39.170Z,29.50
2019-05-11T15:23:28.599Z,29.37
2019-05-11T15:26:18.842Z,29.47
2019-05-11T15:29:08.401Z,29.35
2019-05-11T15:31:57.871Z,29.97
2019-05-11T15:34:48.807Z,29.91
2019-05-11T15:37:38.554Z,29.77
2019-05-11T15:40:28.010Z,29.43
2019-05-11T15:43:18.105Z,29.77
2019-05-11T15:46:07.283Z,29.50
2019-05-11T15:49:02.971Z,29.83
2019-05-11T15:51:48.871Z,29.28
2019-05-11T15:54:38.742Z,29.10
2019-05-11T15:57:28.912Z,29.49
2019-05-11T16:00:19.759Z,29.93
2019-05-11T16:03:08.732Z,29.97
2019-05-11T16:05:58.346Z,29.86
2019-05-11T16:08:47.755Z,29.32
2019-05-11T16:11:38.513Z,29.41
2019-05-11T16:14:28.224Z,28.87
2019-05-11T16:17:17.453Z,29.05
2019-05-11T16:20:08.804Z,29.03
2019-05-11T16:22:57.656Z,29.10
2019-05-11T16:25:48.883Z,29.12
2019-05-11T16:28:38.353Z,28.72
2019-05-11T16:31:28.542Z,28.77
2019-05-11T16:34:18.517Z,28.73
2019-05-11T16:37:10.200Z,28.83
2019-05-11T16:39:59.971Z,28.36
2019-05-11T16:42:49.596Z,28.67
2019-05-11T16:45:39.100Z,28.74
2019-05-11T16:48:28.148Z,28.43
2019-05-11T16:51:17.876Z,28.36
2019-05-11T16:54:07.643Z,26.99
2019-05-11T16:56:57.927Z,28.71
2019-05-11T16:59:48.355Z,28.47
2019-05-11T17:02:38.346Z,28.75
2019-05-11T17:05:33.263Z,29.15
2019-05-11T17:08:18.746Z,29.28
2019-05-11T17:11:08.523Z,29.61
2019-05-11T17:13:57.583Z,30.03
2019-05-11T17:16:48.183Z,30.00
2019-05-11T17:19:43.673Z,30.28
2019-05-11T17:22:28.721Z,30.53
2019-05-11T17:25:19.139Z,30.47
2019-05-11T17:28:10.065Z,31.09
2019-05-11T17:31:02.827Z,31.38
2019-05-11T17:33:50.540Z,31.64
2019-05-11T17:36:39.177Z,32.10
2019-05-11T17:39:28.289Z,32.12
2019-05-11T17:42:18.271Z,32.37
2019-05-11T17:45:08.925Z,32.87
2019-05-11T17:47:58.901Z,32.92
2019-05-11T17:50:48.302Z,33.34
2019-05-11T17:53:37.902Z,33.61
2019-05-11T17:56:27.989Z,33.98
2019-05-11T17:59:16.672Z,34.21
2019-05-11T18:02:06.137Z,34.33
2019-05-11T18:04:55.132Z,34.31
2019-05-11T18:07:44.568Z,34.69
2019-05-11T18:10:34.020Z,34.74
2019-05-11T18:13:23.636Z,35.08
2019-05-11T18:16:12.931Z,35.34
2019-05-11T18:19:01.645Z,35.67
2019-05-11T18:21:50.964Z,35.54
2019-05-11T18:24:40.295Z,36.28
2019-05-11T18:30:40.610Z,36.24
2019-05-11T18:33:31.029Z,36.56
2019-05-11T18:36:23.110Z,36.72
2019-05-11T18:39:12.521Z,36.98
2019-05-11T18:42:02.124Z,37.11
2019-05-11T18:44:51.549Z,37.46
2019-05-11T18:47:42.853Z,37.64
2019-05-11T18:50:33.935Z,37.83
2019-05-11T18:53:25.428Z,38.08
2019-05-11T18:56:15.423Z,38.28
2019-05-11T18:59:08.863Z,38.13
2019-05-11T19:02:01.330Z,38.65
2019-05-11T19:04:52.250Z,38.79
2019-05-11T19:07:45.037Z,39.00
2019-05-11T19:10:35.078Z,39.11
2019-05-11T19:13:28.156Z,39.26
2019-05-11T19:16:18.730Z,39.41
2019-05-11T19:19:08.506Z,39.61
2019-05-11T19:22:02.362Z,39.75
2019-05-11T19:24:53.130Z,39.75
2019-05-11T19:27:44.121Z,40.01
2019-05-11T19:30:34.449Z,40.10
2019-05-11T19:33:23.801Z,40.23
2019-05-11T19:36:14.699Z,40.31
2019-05-11T19:39:05.344Z,40.39
2019-05-11T19:41:55.319Z,40.53
2019-05-11T19:44:47.850Z,40.58
2019-05-11T19:47:37.864Z,40.65
2019-05-11T19:50:28.477Z,40.85
2019-05-11T19:53:18.843Z,40.94
2019-05-11T19:56:09.084Z,41.06
2019-05-11T19:58:58.414Z,41.07
2019-05-11T20:01:52.978Z,41.09
2019-05-11T20:04:44.823Z,41.15
2019-05-11T20:07:34.397Z,41.21
2019-05-11T20:10:27.723Z,41.33
2019-05-11T20:13:18.342Z,41.37
2019-05-11T20:16:08.444Z,41.50
2019-05-11T20:18:59.918Z,41.53
2019-05-11T20:21:50.758Z,41.67
2019-05-11T20:24:40.288Z,41.77
2019-05-11T20:27:29.539Z,41.90
2019-05-11T20:30:19.627Z,42.06
2019-05-11T20:33:13.279Z,42.08
2019-05-11T20:36:03.661Z,42.22
2019-05-11T20:38:55.947Z,42.31
2019-05-11T20:41:47.983Z,42.49
2019-05-11T20:44:39.576Z,42.62
2019-05-11T20:47:29.347Z,42.71
2019-05-11T20:50:18.888Z,42.93
2019-05-11T20:53:11.296Z,42.97
2019-05-11T20:56:01.835Z,43.16
2019-05-11T20:58:55.533Z,43.37
2019-05-11T21:01:49.392Z,43.46
2019-05-11T21:04:40.309Z,43.56
2019-05-11T21:07:29.629Z,43.80
2019-05-11T21:10:24.441Z,43.92
2019-05-11T21:13:18.124Z,43.95
2019-05-11T21:16:08.776Z,44.11
2019-05-11T21:19:00.602Z,44.19
2019-05-11T21:21:53.909Z,44.41
2019-05-11T21:24:49.714Z,44.39
2019-05-11T21:27:42.645Z,44.46
2019-05-11T21:30:39.676Z,44.37
2019-05-11T21:33:30.651Z,44.46
2019-05-11T21:36:25.570Z,44.46
2019-05-11T21:39:19.491Z,44.53
2019-05-11T21:42:13.648Z,44.50
2019-05-11T21:45:04.136Z,44.54
2019-05-11T21:47:54.861Z,44.45
2019-05-11T21:50:49.162Z,44.47
2019-05-11T21:53:39.671Z,44.40
2019-05-11T21:56:30.705Z,44.32
2019-05-11T21:59:27.526Z,44.39
2019-05-11T22:02:25.082Z,44.34
2019-05-11T22:05:15.386Z,44.34
2019-05-11T22:08:22.471Z,44.29
2019-05-11T22:11:14.244Z,44.32
2019-05-11T22:14:09.135Z,44.34
2019-05-11T22:17:02.503Z,44.40
2019-05-11T22:19:51.847Z,44.32
2019-05-11T22:22:41.589Z,44.42
2019-05-11T22:25:31.946Z,44.38
2019-05-11T22:28:22.953Z,44.38
2019-05-11T22:31:18.291Z,44.37
2019-05-11T22:34:08.947Z,44.43
2019-05-11T22:37:05.267Z,44.46
2019-05-11T22:39:57.884Z,44.45
2019-05-11T22:42:48.524Z,44.50
2019-05-11T22:45:42.057Z,44.58
2019-05-11T22:48:32.681Z,44.47
2019-05-11T22:51:24.695Z,44.67
2019-05-11T22:54:20.650Z,44.69
2019-05-11T22:57:11.097Z,44.70
2019-05-11T23:00:02.643Z,44.81
2019-05-11T23:02:52.385Z,44.82
2019-05-11T23:05:47.682Z,44.85
2019-05-11T23:08:37.367Z,44.90
2019-05-11T23:11:49.805Z,45.03
2019-05-11T23:14:48.276Z,45.14
2019-05-11T23:17:38.609Z,45.20
2019-05-11T23:20:32.435Z,45.26
2019-05-11T23:23:30.881Z,45.29
2019-05-11T23:26:24.952Z,45.39
2019-05-11T23:29:18.479Z,45.47
2019-05-11T23:32:13.486Z,45.58
2019-05-11T23:35:08.152Z,45.61
2019-05-11T23:38:02.203Z,45.59
2019-05-11T23:40:52.321Z,45.71
2019-05-11T23:43:47.753Z,45.84
2019-05-11T23:46:41.638Z,45.84
2019-05-11T23:49:42.988Z,45.87
2019-05-11T23:52:34.819Z,45.95
2019-05-11T23:55:29.148Z,46.03
2019-05-11T23:58:19.616Z,46.04
